Mendon - 24 Hour Table
Date & TimeSolar
Radiation
(W/m²)
Wind
Speed
(mph)
Wind
Direction
(degrees)
Air
Temperature
(°F)
Relative
Humidity
(%)
Precipitation
(inches)
2020/01/25 06:00 0 0.0 9 32.2 100 0.00
2020/01/25 05:00 0 0.0 352 32.3 100 0.00
2020/01/25 04:00 0 0.0 319 32.3 100 0.00
2020/01/25 03:00 0 0.0 260 32.0 100 0.00
2020/01/25 02:00 0 0.0 192 31.5 100 0.00
2020/01/25 01:00 0 0.0 257 32.3 100 0.00
2020/01/25 00:00 0 0.0 320 32.9 100 0.00
2020/01/24 23:00 0 0.0 320 33.3 100 0.00
2020/01/24 22:00 0 0.5 163 33.4 100 0.00
2020/01/24 21:00 0 0.0 283 33.2 99 0.00
2020/01/24 20:00 0 0.0 183 33.2 99 0.00
2020/01/24 19:00 0 0.0 164 33.5 98 0.00
2020/01/24 18:00 5 0.0 167 33.9 96 0.00
2020/01/24 17:00 52 0.0 262 36.0 93 0.00
2020/01/24 16:00 103 0.0 114 35.7 89 0.00
2020/01/24 15:00 154 0.0 9 36.7 89 0.00
2020/01/24 14:00 179 0.0 338 34.9 92 0.01
2020/01/24 13:00 177 0.0 344 35.4 89 0.00
2020/01/24 12:00 140 0.0 7 32.6 91 0.00
2020/01/24 11:00 91 0.2 146 31.1 93 0.00
2020/01/24 10:00 85 0.0 151 28.7 94 0.00
2020/01/24 09:00 28 0.0 191 27.1 97 0.00
2020/01/24 08:00 2 0.0 113 26.0 98 0.00
2020/01/24 07:00 0 0.0 306 27.4 98 0.00